Terminal Aerodrome Forecast
Issued by NWS

Home | Current Version | Previous Version | Graphics & Text | Print | Product List | Glossary On
Versions: 1 2 3 4 5 6 7 8 9 10 11 12 13 14 15 16 17 18 19 20 21 22 23 24
000
FTUS43 KBIS 312056 AAA
TAFJMS
TAF AMD
KJMS 312056Z 3121/0118 33014KT P6SM BKN250
     FM010000 27006KT P6SM FEW250
     FM011500 18006KT P6SM FEW250=

USA.gov is the U.S. government's official web portal to all federal, state and local government web resources and services.